Decoded Metar for YSDU (DUBBO in AUSTRALIA) (IATA:DBO) | Meteo·Mobile Aviation Weather
aviador You're here:

YSDU Decoded Metar

DUBBO in AUSTRALIA
Report Time2019-10-22 13:00:00
UTC Time2019-10-22 13:26:30
Flight Rules vfr VFR
Wind110° at 05 kt
W.Decomp.*RWY 11: 4.9 kt HW 0.9 kt LCW
RWY 05: 3.2 kt HW 3.8 kt RCW
Visibility9999 m
Phenomena:N/A
Clouds:N/A
Expected CloudBase > 6,800 ft AGL from Temp-Dew spread
CeilingNone
Temp17°C (ISA +4)
Dew Point00°C (32% RH)
AAT13.2°C
QNH1021 hPa
Density Alt1,168 ft
Elevation902 ft
Report Wrong Elevation
Raw Report
YSDU 221300Z AUTO 11005KT 9999 // NCD 17/M00 Q1021=

Extra information for YSDU:More info

Metar Taf Metar & Taf Last 4 Metars F.Rules Stats Wind Profile Meteogram Temp Stats Airport Information Weather charts Add Link Nearby VenuesMetar ALERT Operation Metar Decoded Social comments